sensor_id;sensor_type;location;lat;lon;timestamp;P1;durP1;ratioP1;P2;durP2;ratioP2
60935;SDS011;46804;51.786;19.520;2023-06-26T00:03:13;4.72;;;3.35;;
60935;SDS011;46804;51.786;19.520;2023-06-26T00:07:15;6.32;;;3.85;;
60935;SDS011;46804;51.786;19.520;2023-06-26T00:11:16;5.72;;;3.80;;
60935;SDS011;46804;51.786;19.520;2023-06-26T00:15:17;5.15;;;3.35;;
60935;SDS011;46804;51.786;19.520;2023-06-26T00:19:17;6.57;;;4.05;;
60935;SDS011;46804;51.786;19.520;2023-06-26T00:23:18;5.75;;;3.65;;
60935;SDS011;46804;51.786;19.520;2023-06-26T00:27:20;6.78;;;3.75;;
60935;SDS011;46804;51.786;19.520;2023-06-26T00:31:20;8.52;;;4.00;;
60935;SDS011;46804;51.786;19.520;2023-06-26T00:35:21;10.27;;;4.13;;
60935;SDS011;46804;51.786;19.520;2023-06-26T00:39:22;7.57;;;4.07;;
60935;SDS011;46804;51.786;19.520;2023-06-26T00:47:26;6.88;;;4.55;;
60935;SDS011;46804;51.786;19.520;2023-06-26T00:51:27;8.30;;;4.88;;
60935;SDS011;46804;51.786;19.520;2023-06-26T00:55:29;9.25;;;4.50;;
60935;SDS011;46804;51.786;19.520;2023-06-26T00:59:30;6.60;;;3.97;;
60935;SDS011;46804;51.786;19.520;2023-06-26T01:03:31;8.02;;;4.47;;
60935;SDS011;46804;51.786;19.520;2023-06-26T01:07:32;6.75;;;4.60;;
60935;SDS011;46804;51.786;19.520;2023-06-26T01:11:37;7.97;;;4.50;;
60935;SDS011;46804;51.786;19.520;2023-06-26T01:15:40;9.23;;;4.90;;
60935;SDS011;46804;51.786;19.520;2023-06-26T01:19:42;7.22;;;4.35;;
60935;SDS011;46804;51.786;19.520;2023-06-26T01:24:05;8.20;;;4.05;;
60935;SDS011;46804;51.786;19.520;2023-06-26T01:28:10;9.10;;;4.85;;
60935;SDS011;46804;51.786;19.520;2023-06-26T01:32:13;9.95;;;4.53;;
60935;SDS011;46804;51.786;19.520;2023-06-26T01:36:14;8.88;;;4.82;;
60935;SDS011;46804;51.786;19.520;2023-06-26T01:40:15;7.65;;;4.55;;
60935;SDS011;46804;51.786;19.520;2023-06-26T01:44:26;9.32;;;5.10;;
60935;SDS011;46804;51.786;19.520;2023-06-26T01:48:40;9.80;;;5.07;;
60935;SDS011;46804;51.786;19.520;2023-06-26T01:53:01;10.00;;;4.85;;
60935;SDS011;46804;51.786;19.520;2023-06-26T01:57:07;9.13;;;4.80;;
60935;SDS011;46804;51.786;19.520;2023-06-26T02:01:09;6.97;;;4.40;;
60935;SDS011;46804;51.786;19.520;2023-06-26T02:05:11;7.15;;;5.15;;
60935;SDS011;46804;51.786;19.520;2023-06-26T02:09:12;9.57;;;5.32;;
60935;SDS011;46804;51.786;19.520;2023-06-26T02:13:13;9.13;;;5.45;;
60935;SDS011;46804;51.786;19.520;2023-06-26T02:17:13;9.20;;;5.27;;
60935;SDS011;46804;51.786;19.520;2023-06-26T02:21:14;10.90;;;5.15;;
60935;SDS011;46804;51.786;19.520;2023-06-26T02:25:15;9.30;;;4.95;;
60935;SDS011;46804;51.786;19.520;2023-06-26T02:29:16;9.93;;;5.40;;
60935;SDS011;46804;51.786;19.520;2023-06-26T02:33:16;9.00;;;5.25;;
60935;SDS011;46804;51.786;19.520;2023-06-26T02:37:18;12.20;;;5.20;;
60935;SDS011;46804;51.786;19.520;2023-06-26T02:41:18;8.88;;;5.65;;
60935;SDS011;46804;51.786;19.520;2023-06-26T02:45:19;7.70;;;5.30;;
60935;SDS011;46804;51.786;19.520;2023-06-26T02:49:20;8.07;;;5.50;;
60935;SDS011;46804;51.786;19.520;2023-06-26T02:53:21;9.48;;;5.22;;
60935;SDS011;46804;51.786;19.520;2023-06-26T02:57:21;11.57;;;5.18;;
60935;SDS011;46804;51.786;19.520;2023-06-26T03:01:22;10.45;;;5.40;;
60935;SDS011;46804;51.786;19.520;2023-06-26T03:05:23;8.30;;;5.63;;
60935;SDS011;46804;51.786;19.520;2023-06-26T03:09:24;9.20;;;5.68;;
60935;SDS011;46804;51.786;19.520;2023-06-26T03:13:25;12.40;;;5.85;;
60935;SDS011;46804;51.786;19.520;2023-06-26T03:17:26;8.60;;;6.10;;
60935;SDS011;46804;51.786;19.520;2023-06-26T03:21:26;9.23;;;5.15;;
60935;SDS011;46804;51.786;19.520;2023-06-26T03:25:27;9.52;;;5.65;;
60935;SDS011;46804;51.786;19.520;2023-06-26T03:29:28;9.07;;;5.32;;
60935;SDS011;46804;51.786;19.520;2023-06-26T03:33:30;9.50;;;5.63;;
60935;SDS011;46804;51.786;19.520;2023-06-26T03:37:31;9.55;;;5.95;;
60935;SDS011;46804;51.786;19.520;2023-06-26T03:41:31;9.00;;;5.55;;
60935;SDS011;46804;51.786;19.520;2023-06-26T03:45:32;9.80;;;5.72;;
60935;SDS011;46804;51.786;19.520;2023-06-26T03:49:33;9.70;;;5.43;;
60935;SDS011;46804;51.786;19.520;2023-06-26T03:53:34;8.43;;;5.90;;
60935;SDS011;46804;51.786;19.520;2023-06-26T03:57:35;7.85;;;5.30;;
60935;SDS011;46804;51.786;19.520;2023-06-26T04:01:36;8.18;;;5.53;;
60935;SDS011;46804;51.786;19.520;2023-06-26T04:05:37;9.82;;;5.65;;
60935;SDS011;46804;51.786;19.520;2023-06-26T04:09:38;9.75;;;6.70;;
60935;SDS011;46804;51.786;19.520;2023-06-26T04:13:39;11.65;;;7.10;;
60935;SDS011;46804;51.786;19.520;2023-06-26T04:17:40;14.60;;;6.10;;
60935;SDS011;46804;51.786;19.520;2023-06-26T04:21:40;9.73;;;6.32;;
60935;SDS011;46804;51.786;19.520;2023-06-26T04:25:41;10.70;;;5.90;;
60935;SDS011;46804;51.786;19.520;2023-06-26T04:29:42;10.60;;;6.43;;
60935;SDS011;46804;51.786;19.520;2023-06-26T04:33:43;12.48;;;6.53;;
60935;SDS011;46804;51.786;19.520;2023-06-26T04:37:43;9.15;;;5.55;;
60935;SDS011;46804;51.786;19.520;2023-06-26T04:41:45;8.73;;;5.53;;
60935;SDS011;46804;51.786;19.520;2023-06-26T04:45:46;9.93;;;5.90;;
60935;SDS011;46804;51.786;19.520;2023-06-26T04:49:47;10.07;;;5.75;;
60935;SDS011;46804;51.786;19.520;2023-06-26T04:53:47;10.15;;;5.68;;
60935;SDS011;46804;51.786;19.520;2023-06-26T04:57:48;10.98;;;6.65;;
60935;SDS011;46804;51.786;19.520;2023-06-26T05:01:49;10.32;;;6.68;;
60935;SDS011;46804;51.786;19.520;2023-06-26T05:05:49;11.27;;;6.50;;
60935;SDS011;46804;51.786;19.520;2023-06-26T05:09:50;10.05;;;6.30;;
60935;SDS011;46804;51.786;19.520;2023-06-26T05:13:51;11.32;;;7.03;;
60935;SDS011;46804;51.786;19.520;2023-06-26T05:17:52;11.52;;;6.32;;
60935;SDS011;46804;51.786;19.520;2023-06-26T05:21:53;9.55;;;6.30;;
60935;SDS011;46804;51.786;19.520;2023-06-26T05:25:55;10.90;;;6.78;;
60935;SDS011;46804;51.786;19.520;2023-06-26T05:29:56;13.27;;;6.53;;
60935;SDS011;46804;51.786;19.520;2023-06-26T05:33:57;13.52;;;6.38;;
60935;SDS011;46804;51.786;19.520;2023-06-26T05:37:59;10.48;;;5.63;;
60935;SDS011;46804;51.786;19.520;2023-06-26T05:41:59;10.00;;;5.82;;
60935;SDS011;46804;51.786;19.520;2023-06-26T05:46:00;10.00;;;6.03;;
60935;SDS011;46804;51.786;19.520;2023-06-26T05:50:01;9.00;;;5.45;;
60935;SDS011;46804;51.786;19.520;2023-06-26T05:54:03;10.38;;;5.32;;
60935;SDS011;46804;51.786;19.520;2023-06-26T05:58:04;8.35;;;5.07;;
60935;SDS011;46804;51.786;19.520;2023-06-26T06:02:05;8.27;;;5.65;;
60935;SDS011;46804;51.786;19.520;2023-06-26T06:06:05;8.38;;;5.25;;
60935;SDS011;46804;51.786;19.520;2023-06-26T06:10:06;7.60;;;4.95;;
60935;SDS011;46804;51.786;19.520;2023-06-26T06:14:08;7.72;;;5.10;;
60935;SDS011;46804;51.786;19.520;2023-06-26T06:18:09;8.52;;;5.07;;
60935;SDS011;46804;51.786;19.520;2023-06-26T06:22:09;6.70;;;4.93;;
60935;SDS011;46804;51.786;19.520;2023-06-26T06:26:10;9.55;;;5.03;;
60935;SDS011;46804;51.786;19.520;2023-06-26T06:30:11;9.60;;;5.05;;
60935;SDS011;46804;51.786;19.520;2023-06-26T06:34:12;9.40;;;5.45;;
60935;SDS011;46804;51.786;19.520;2023-06-26T06:38:13;8.15;;;4.80;;
60935;SDS011;46804;51.786;19.520;2023-06-26T06:42:14;7.32;;;4.43;;
60935;SDS011;46804;51.786;19.520;2023-06-26T06:46:15;10.90;;;4.47;;
60935;SDS011;46804;51.786;19.520;2023-06-26T06:50:15;8.60;;;4.07;;
60935;SDS011;46804;51.786;19.520;2023-06-26T06:54:18;5.15;;;3.72;;
60935;SDS011;46804;51.786;19.520;2023-06-26T06:58:19;7.72;;;3.97;;
60935;SDS011;46804;51.786;19.520;2023-06-26T07:02:20;7.30;;;3.70;;
60935;SDS011;46804;51.786;19.520;2023-06-26T07:06:20;6.57;;;3.83;;
60935;SDS011;46804;51.786;19.520;2023-06-26T07:10:21;5.75;;;3.58;;
60935;SDS011;46804;51.786;19.520;2023-06-26T07:14:22;6.38;;;3.30;;
60935;SDS011;46804;51.786;19.520;2023-06-26T07:18:23;5.35;;;3.72;;
60935;SDS011;46804;51.786;19.520;2023-06-26T07:22:24;6.28;;;3.38;;
60935;SDS011;46804;51.786;19.520;2023-06-26T07:26:24;7.95;;;3.60;;
60935;SDS011;46804;51.786;19.520;2023-06-26T07:30:25;5.13;;;3.50;;
60935;SDS011;46804;51.786;19.520;2023-06-26T07:34:26;5.53;;;3.70;;
60935;SDS011;46804;51.786;19.520;2023-06-26T07:38:26;7.25;;;3.70;;
60935;SDS011;46804;51.786;19.520;2023-06-26T07:42:27;7.32;;;3.92;;
60935;SDS011;46804;51.786;19.520;2023-06-26T07:46:28;6.13;;;3.97;;
60935;SDS011;46804;51.786;19.520;2023-06-26T07:50:29;6.15;;;4.30;;
60935;SDS011;46804;51.786;19.520;2023-06-26T07:54:29;5.75;;;3.47;;
60935;SDS011;46804;51.786;19.520;2023-06-26T07:58:30;5.47;;;3.67;;
60935;SDS011;46804;51.786;19.520;2023-06-26T08:02:31;5.68;;;3.28;;
60935;SDS011;46804;51.786;19.520;2023-06-26T08:06:32;6.57;;;3.90;;
60935;SDS011;46804;51.786;19.520;2023-06-26T08:10:32;6.23;;;3.70;;
60935;SDS011;46804;51.786;19.520;2023-06-26T08:14:33;5.68;;;3.17;;
60935;SDS011;46804;51.786;19.520;2023-06-26T08:18:34;6.32;;;2.92;;
60935;SDS011;46804;51.786;19.520;2023-06-26T08:22:35;5.32;;;3.03;;
60935;SDS011;46804;51.786;19.520;2023-06-26T08:26:36;5.53;;;3.20;;
60935;SDS011;46804;51.786;19.520;2023-06-26T08:30:37;6.23;;;3.10;;
60935;SDS011;46804;51.786;19.520;2023-06-26T08:34:38;6.05;;;3.10;;
60935;SDS011;46804;51.786;19.520;2023-06-26T08:38:39;9.05;;;5.90;;
60935;SDS011;46804;51.786;19.520;2023-06-26T08:42:42;12.55;;;8.02;;
60935;SDS011;46804;51.786;19.520;2023-06-26T08:46:43;4.65;;;3.08;;
60935;SDS011;46804;51.786;19.520;2023-06-26T08:50:45;7.00;;;3.27;;
60935;SDS011;46804;51.786;19.520;2023-06-26T08:54:52;5.68;;;3.25;;
60935;SDS011;46804;51.786;19.520;2023-06-26T08:58:56;4.45;;;2.92;;
60935;SDS011;46804;51.786;19.520;2023-06-26T09:02:57;6.00;;;3.35;;
60935;SDS011;46804;51.786;19.520;2023-06-26T09:06:59;7.13;;;3.10;;
60935;SDS011;46804;51.786;19.520;2023-06-26T09:11:00;5.45;;;3.30;;
60935;SDS011;46804;51.786;19.520;2023-06-26T09:15:01;5.28;;;3.10;;
60935;SDS011;46804;51.786;19.520;2023-06-26T09:19:03;5.75;;;3.30;;
60935;SDS011;46804;51.786;19.520;2023-06-26T09:23:05;5.07;;;2.90;;
60935;SDS011;46804;51.786;19.520;2023-06-26T09:27:06;3.72;;;2.70;;
60935;SDS011;46804;51.786;19.520;2023-06-26T09:31:07;4.25;;;3.15;;
60935;SDS011;46804;51.786;19.520;2023-06-26T09:35:08;6.63;;;3.35;;
60935;SDS011;46804;51.786;19.520;2023-06-26T09:39:08;4.75;;;3.17;;
60935;SDS011;46804;51.786;19.520;2023-06-26T09:43:12;4.72;;;3.25;;
60935;SDS011;46804;51.786;19.520;2023-06-26T09:47:18;6.85;;;3.17;;
60935;SDS011;46804;51.786;19.520;2023-06-26T09:51:19;5.78;;;3.00;;
60935;SDS011;46804;51.786;19.520;2023-06-26T09:55:23;5.65;;;3.38;;
60935;SDS011;46804;51.786;19.520;2023-06-26T09:59:24;4.40;;;2.90;;
60935;SDS011;46804;51.786;19.520;2023-06-26T10:03:25;4.65;;;2.92;;
60935;SDS011;46804;51.786;19.520;2023-06-26T10:07:25;4.63;;;2.88;;
60935;SDS011;46804;51.786;19.520;2023-06-26T10:11:29;4.93;;;2.97;;
60935;SDS011;46804;51.786;19.520;2023-06-26T10:15:41;4.90;;;3.30;;
60935;SDS011;46804;51.786;19.520;2023-06-26T10:19:45;5.65;;;3.30;;
60935;SDS011;46804;51.786;19.520;2023-06-26T10:23:48;5.57;;;3.22;;
60935;SDS011;46804;51.786;19.520;2023-06-26T10:27:56;8.15;;;3.33;;
60935;SDS011;46804;51.786;19.520;2023-06-26T10:31:58;4.95;;;2.92;;
60935;SDS011;46804;51.786;19.520;2023-06-26T10:36:16;4.85;;;3.03;;
60935;SDS011;46804;51.786;19.520;2023-06-26T10:40:22;4.40;;;3.15;;
60935;SDS011;46804;51.786;19.520;2023-06-26T10:44:26;4.55;;;3.35;;
60935;SDS011;46804;51.786;19.520;2023-06-26T10:48:28;6.38;;;3.10;;
60935;SDS011;46804;51.786;19.520;2023-06-26T10:52:29;8.38;;;3.38;;
60935;SDS011;46804;51.786;19.520;2023-06-26T11:00:50;5.50;;;3.17;;
60935;SDS011;46804;51.786;19.520;2023-06-26T11:04:51;4.43;;;2.90;;
60935;SDS011;46804;51.786;19.520;2023-06-26T11:08:54;5.85;;;3.33;;
60935;SDS011;46804;51.786;19.520;2023-06-26T11:13:00;6.53;;;3.40;;
60935;SDS011;46804;51.786;19.520;2023-06-26T11:17:03;5.40;;;3.30;;
60935;SDS011;46804;51.786;19.520;2023-06-26T11:21:13;4.20;;;2.95;;
60935;SDS011;46804;51.786;19.520;2023-06-26T11:25:14;5.10;;;3.28;;
60935;SDS011;46804;51.786;19.520;2023-06-26T11:29:15;7.75;;;3.65;;
60935;SDS011;46804;51.786;19.520;2023-06-26T11:33:15;4.40;;;3.38;;
60935;SDS011;46804;51.786;19.520;2023-06-26T11:37:17;5.18;;;3.20;;
60935;SDS011;46804;51.786;19.520;2023-06-26T11:41:17;4.63;;;3.43;;
60935;SDS011;46804;51.786;19.520;2023-06-26T11:45:19;5.22;;;3.30;;
60935;SDS011;46804;51.786;19.520;2023-06-26T11:49:20;6.25;;;3.78;;
60935;SDS011;46804;51.786;19.520;2023-06-26T11:53:23;6.25;;;3.95;;
60935;SDS011;46804;51.786;19.520;2023-06-26T11:57:24;9.45;;;3.72;;
60935;SDS011;46804;51.786;19.520;2023-06-26T12:01:25;8.30;;;3.85;;
60935;SDS011;46804;51.786;19.520;2023-06-26T12:05:26;6.17;;;3.33;;
60935;SDS011;46804;51.786;19.520;2023-06-26T12:09:27;8.18;;;3.30;;
60935;SDS011;46804;51.786;19.520;2023-06-26T12:13:28;5.78;;;3.50;;
60935;SDS011;46804;51.786;19.520;2023-06-26T12:17:29;4.70;;;3.40;;
60935;SDS011;46804;51.786;19.520;2023-06-26T12:25:38;7.75;;;3.20;;
60935;SDS011;46804;51.786;19.520;2023-06-26T12:29:40;8.05;;;3.40;;
60935;SDS011;46804;51.786;19.520;2023-06-26T12:33:43;5.53;;;3.30;;
60935;SDS011;46804;51.786;19.520;2023-06-26T12:37:44;5.60;;;3.33;;
60935;SDS011;46804;51.786;19.520;2023-06-26T12:41:49;6.90;;;3.38;;
60935;SDS011;46804;51.786;19.520;2023-06-26T12:45:54;4.47;;;3.17;;
60935;SDS011;46804;51.786;19.520;2023-06-26T12:49:56;5.22;;;3.50;;
60935;SDS011;46804;51.786;19.520;2023-06-26T12:53:58;5.55;;;3.40;;
60935;SDS011;46804;51.786;19.520;2023-06-26T12:57:58;4.50;;;3.40;;
60935;SDS011;46804;51.786;19.520;2023-06-26T13:01:59;6.13;;;3.70;;
60935;SDS011;46804;51.786;19.520;2023-06-26T13:06:00;5.45;;;3.50;;
60935;SDS011;46804;51.786;19.520;2023-06-26T13:10:01;7.25;;;3.33;;
60935;SDS011;46804;51.786;19.520;2023-06-26T13:14:01;9.45;;;3.80;;
60935;SDS011;46804;51.786;19.520;2023-06-26T13:18:03;4.83;;;3.83;;
60935;SDS011;46804;51.786;19.520;2023-06-26T13:22:03;5.45;;;3.55;;
60935;SDS011;46804;51.786;19.520;2023-06-26T13:26:05;7.00;;;4.00;;
60935;SDS011;46804;51.786;19.520;2023-06-26T13:30:06;5.20;;;3.40;;
60935;SDS011;46804;51.786;19.520;2023-06-26T13:34:08;5.37;;;3.60;;
60935;SDS011;46804;51.786;19.520;2023-06-26T13:38:08;9.27;;;3.70;;
60935;SDS011;46804;51.786;19.520;2023-06-26T13:42:09;6.38;;;3.17;;
60935;SDS011;46804;51.786;19.520;2023-06-26T13:46:10;5.05;;;3.50;;
60935;SDS011;46804;51.786;19.520;2023-06-26T13:50:11;5.68;;;3.25;;
60935;SDS011;46804;51.786;19.520;2023-06-26T13:54:11;5.70;;;3.10;;
60935;SDS011;46804;51.786;19.520;2023-06-26T13:58:12;6.43;;;3.45;;
60935;SDS011;46804;51.786;19.520;2023-06-26T14:02:13;4.30;;;3.40;;
60935;SDS011;46804;51.786;19.520;2023-06-26T14:06:14;5.97;;;3.00;;
60935;SDS011;46804;51.786;19.520;2023-06-26T14:10:15;4.82;;;3.40;;
60935;SDS011;46804;51.786;19.520;2023-06-26T14:14:16;5.88;;;3.42;;
60935;SDS011;46804;51.786;19.520;2023-06-26T14:18:16;5.38;;;3.30;;
60935;SDS011;46804;51.786;19.520;2023-06-26T14:22:18;4.57;;;3.40;;
60935;SDS011;46804;51.786;19.520;2023-06-26T14:26:19;4.93;;;3.17;;
60935;SDS011;46804;51.786;19.520;2023-06-26T14:30:19;5.10;;;3.40;;
60935;SDS011;46804;51.786;19.520;2023-06-26T14:34:20;5.85;;;3.65;;
60935;SDS011;46804;51.786;19.520;2023-06-26T14:38:21;4.65;;;3.20;;
60935;SDS011;46804;51.786;19.520;2023-06-26T14:42:21;7.45;;;3.30;;
60935;SDS011;46804;51.786;19.520;2023-06-26T14:46:22;4.80;;;3.20;;
60935;SDS011;46804;51.786;19.520;2023-06-26T14:50:23;4.07;;;3.20;;
60935;SDS011;46804;51.786;19.520;2023-06-26T14:54:24;5.30;;;3.33;;
60935;SDS011;46804;51.786;19.520;2023-06-26T14:58:24;4.68;;;3.22;;
60935;SDS011;46804;51.786;19.520;2023-06-26T15:02:25;7.85;;;3.33;;
60935;SDS011;46804;51.786;19.520;2023-06-26T15:06:27;6.28;;;3.40;;
60935;SDS011;46804;51.786;19.520;2023-06-26T15:10:28;6.95;;;3.55;;
60935;SDS011;46804;51.786;19.520;2023-06-26T15:14:28;5.38;;;3.42;;
60935;SDS011;46804;51.786;19.520;2023-06-26T15:18:29;5.35;;;3.40;;
60935;SDS011;46804;51.786;19.520;2023-06-26T15:22:30;7.13;;;3.40;;
60935;SDS011;46804;51.786;19.520;2023-06-26T15:26:30;7.17;;;3.30;;
60935;SDS011;46804;51.786;19.520;2023-06-26T15:30:31;4.57;;;3.40;;
60935;SDS011;46804;51.786;19.520;2023-06-26T15:34:32;9.63;;;3.70;;
60935;SDS011;46804;51.786;19.520;2023-06-26T15:38:32;6.65;;;3.60;;
60935;SDS011;46804;51.786;19.520;2023-06-26T15:42:36;6.18;;;3.70;;
60935;SDS011;46804;51.786;19.520;2023-06-26T15:46:45;4.82;;;3.47;;
60935;SDS011;46804;51.786;19.520;2023-06-26T15:50:46;6.72;;;3.83;;
60935;SDS011;46804;51.786;19.520;2023-06-26T15:54:46;6.47;;;3.63;;
60935;SDS011;46804;51.786;19.520;2023-06-26T15:58:48;4.72;;;3.33;;
60935;SDS011;46804;51.786;19.520;2023-06-26T16:02:49;11.65;;;3.80;;
60935;SDS011;46804;51.786;19.520;2023-06-26T16:06:50;6.43;;;3.70;;
60935;SDS011;46804;51.786;19.520;2023-06-26T16:10:52;5.57;;;3.58;;
60935;SDS011;46804;51.786;19.520;2023-06-26T16:14:53;5.05;;;3.70;;
60935;SDS011;46804;51.786;19.520;2023-06-26T16:18:54;5.32;;;3.78;;
60935;SDS011;46804;51.786;19.520;2023-06-26T16:22:55;5.82;;;3.33;;
60935;SDS011;46804;51.786;19.520;2023-06-26T16:26:56;6.78;;;3.40;;
60935;SDS011;46804;51.786;19.520;2023-06-26T16:30:57;6.00;;;4.00;;
60935;SDS011;46804;51.786;19.520;2023-06-26T16:34:57;5.72;;;3.90;;
60935;SDS011;46804;51.786;19.520;2023-06-26T16:38:58;6.63;;;3.55;;
60935;SDS011;46804;51.786;19.520;2023-06-26T16:43:01;5.03;;;3.88;;
60935;SDS011;46804;51.786;19.520;2023-06-26T16:47:02;10.95;;;5.85;;
60935;SDS011;46804;51.786;19.520;2023-06-26T16:51:04;7.20;;;4.10;;
60935;SDS011;46804;51.786;19.520;2023-06-26T16:55:06;5.65;;;3.85;;
60935;SDS011;46804;51.786;19.520;2023-06-26T16:59:07;5.07;;;3.83;;
60935;SDS011;46804;51.786;19.520;2023-06-26T17:03:07;6.32;;;4.53;;
60935;SDS011;46804;51.786;19.520;2023-06-26T17:07:08;6.68;;;4.22;;
60935;SDS011;46804;51.786;19.520;2023-06-26T17:11:09;5.22;;;3.92;;
60935;SDS011;46804;51.786;19.520;2023-06-26T17:15:10;7.35;;;4.00;;
60935;SDS011;46804;51.786;19.520;2023-06-26T17:19:11;6.05;;;3.90;;
60935;SDS011;46804;51.786;19.520;2023-06-26T17:23:13;5.45;;;3.72;;
60935;SDS011;46804;51.786;19.520;2023-06-26T17:27:13;7.47;;;4.50;;
60935;SDS011;46804;51.786;19.520;2023-06-26T17:31:21;5.25;;;3.88;;
60935;SDS011;46804;51.786;19.520;2023-06-26T17:35:22;6.10;;;4.00;;
60935;SDS011;46804;51.786;19.520;2023-06-26T17:39:22;10.80;;;4.13;;
60935;SDS011;46804;51.786;19.520;2023-06-26T17:43:24;6.85;;;4.10;;
60935;SDS011;46804;51.786;19.520;2023-06-26T17:47:25;5.97;;;3.92;;
60935;SDS011;46804;51.786;19.520;2023-06-26T17:55:28;8.32;;;3.70;;
60935;SDS011;46804;51.786;19.520;2023-06-26T17:59:29;6.93;;;3.90;;
60935;SDS011;46804;51.786;19.520;2023-06-26T18:03:29;5.97;;;4.13;;
60935;SDS011;46804;51.786;19.520;2023-06-26T18:07:30;5.70;;;4.10;;
60935;SDS011;46804;51.786;19.520;2023-06-26T18:11:31;5.80;;;3.97;;
60935;SDS011;46804;51.786;19.520;2023-06-26T18:15:33;7.22;;;4.50;;
60935;SDS011;46804;51.786;19.520;2023-06-26T18:19:34;7.55;;;3.95;;
60935;SDS011;46804;51.786;19.520;2023-06-26T18:23:35;6.93;;;4.13;;
60935;SDS011;46804;51.786;19.520;2023-06-26T18:27:36;5.95;;;4.43;;
60935;SDS011;46804;51.786;19.520;2023-06-26T18:31:40;7.55;;;4.55;;
60935;SDS011;46804;51.786;19.520;2023-06-26T18:35:41;11.15;;;4.35;;
60935;SDS011;46804;51.786;19.520;2023-06-26T18:39:41;5.65;;;4.22;;
60935;SDS011;46804;51.786;19.520;2023-06-26T18:43:42;7.03;;;4.38;;
60935;SDS011;46804;51.786;19.520;2023-06-26T18:47:47;7.32;;;3.88;;
60935;SDS011;46804;51.786;19.520;2023-06-26T18:55:51;7.20;;;4.20;;
60935;SDS011;46804;51.786;19.520;2023-06-26T18:59:52;6.53;;;4.70;;
60935;SDS011;46804;51.786;19.520;2023-06-26T19:03:52;7.40;;;4.15;;
60935;SDS011;46804;51.786;19.520;2023-06-26T19:07:53;8.27;;;4.50;;
60935;SDS011;46804;51.786;19.520;2023-06-26T19:11:54;6.22;;;4.32;;
60935;SDS011;46804;51.786;19.520;2023-06-26T19:15:55;6.55;;;4.30;;
60935;SDS011;46804;51.786;19.520;2023-06-26T19:19:56;10.23;;;4.35;;
60935;SDS011;46804;51.786;19.520;2023-06-26T19:23:57;7.60;;;4.63;;
60935;SDS011;46804;51.786;19.520;2023-06-26T19:27:58;6.90;;;4.60;;
60935;SDS011;46804;51.786;19.520;2023-06-26T19:31:59;7.00;;;4.30;;
60935;SDS011;46804;51.786;19.520;2023-06-26T19:36:01;8.65;;;4.43;;
60935;SDS011;46804;51.786;19.520;2023-06-26T19:40:02;6.53;;;4.50;;
60935;SDS011;46804;51.786;19.520;2023-06-26T19:44:04;8.68;;;4.85;;
60935;SDS011;46804;51.786;19.520;2023-06-26T19:48:05;8.07;;;5.03;;
60935;SDS011;46804;51.786;19.520;2023-06-26T19:52:06;9.10;;;5.40;;
60935;SDS011;46804;51.786;19.520;2023-06-26T19:56:07;7.22;;;4.78;;
60935;SDS011;46804;51.786;19.520;2023-06-26T20:00:08;10.73;;;5.63;;
60935;SDS011;46804;51.786;19.520;2023-06-26T20:04:09;12.85;;;5.90;;
60935;SDS011;46804;51.786;19.520;2023-06-26T20:08:10;10.70;;;5.75;;
60935;SDS011;46804;51.786;19.520;2023-06-26T20:12:11;11.00;;;5.78;;
60935;SDS011;46804;51.786;19.520;2023-06-26T20:16:12;10.00;;;5.18;;
60935;SDS011;46804;51.786;19.520;2023-06-26T20:20:13;8.25;;;5.03;;
60935;SDS011;46804;51.786;19.520;2023-06-26T20:24:14;9.30;;;5.68;;
60935;SDS011;46804;51.786;19.520;2023-06-26T20:28:15;7.13;;;5.15;;
60935;SDS011;46804;51.786;19.520;2023-06-26T20:32:16;9.60;;;5.13;;
60935;SDS011;46804;51.786;19.520;2023-06-26T20:36:17;11.55;;;5.50;;
60935;SDS011;46804;51.786;19.520;2023-06-26T20:40:18;9.00;;;5.55;;
60935;SDS011;46804;51.786;19.520;2023-06-26T20:44:20;9.90;;;5.75;;
60935;SDS011;46804;51.786;19.520;2023-06-26T20:48:21;8.68;;;5.20;;
60935;SDS011;46804;51.786;19.520;2023-06-26T20:52:22;11.90;;;5.55;;
60935;SDS011;46804;51.786;19.520;2023-06-26T20:56:25;7.97;;;5.70;;
60935;SDS011;46804;51.786;19.520;2023-06-26T21:00:28;9.77;;;5.77;;
60935;SDS011;46804;51.786;19.520;2023-06-26T21:04:28;10.40;;;6.00;;
60935;SDS011;46804;51.786;19.520;2023-06-26T21:08:29;11.95;;;6.00;;
60935;SDS011;46804;51.786;19.520;2023-06-26T21:12:30;11.85;;;7.20;;
60935;SDS011;46804;51.786;19.520;2023-06-26T21:16:31;14.50;;;6.55;;
60935;SDS011;46804;51.786;19.520;2023-06-26T21:20:31;19.90;;;7.30;;
60935;SDS011;46804;51.786;19.520;2023-06-26T21:24:32;16.42;;;7.75;;
60935;SDS011;46804;51.786;19.520;2023-06-26T21:28:33;24.70;;;9.25;;
60935;SDS011;46804;51.786;19.520;2023-06-26T21:32:33;14.95;;;6.28;;
60935;SDS011;46804;51.786;19.520;2023-06-26T21:36:34;14.82;;;7.45;;
60935;SDS011;46804;51.786;19.520;2023-06-26T21:40:35;10.30;;;6.57;;
60935;SDS011;46804;51.786;19.520;2023-06-26T21:44:36;14.88;;;7.38;;
60935;SDS011;46804;51.786;19.520;2023-06-26T21:48:36;14.18;;;7.03;;
60935;SDS011;46804;51.786;19.520;2023-06-26T21:52:39;14.55;;;7.22;;
60935;SDS011;46804;51.786;19.520;2023-06-26T21:56:39;22.05;;;9.32;;
60935;SDS011;46804;51.786;19.520;2023-06-26T22:00:40;31.48;;;9.43;;
60935;SDS011;46804;51.786;19.520;2023-06-26T22:04:41;24.05;;;9.32;;
60935;SDS011;46804;51.786;19.520;2023-06-26T22:08:41;17.20;;;8.68;;
60935;SDS011;46804;51.786;19.520;2023-06-26T22:12:42;18.50;;;7.40;;
60935;SDS011;46804;51.786;19.520;2023-06-26T22:16:44;13.50;;;7.88;;
60935;SDS011;46804;51.786;19.520;2023-06-26T22:20:45;12.95;;;7.82;;
60935;SDS011;46804;51.786;19.520;2023-06-26T22:24:46;11.00;;;6.72;;
60935;SDS011;46804;51.786;19.520;2023-06-26T22:28:46;12.05;;;6.30;;
60935;SDS011;46804;51.786;19.520;2023-06-26T22:32:47;16.30;;;6.32;;
60935;SDS011;46804;51.786;19.520;2023-06-26T22:36:48;18.58;;;6.53;;
60935;SDS011;46804;51.786;19.520;2023-06-26T22:40:49;14.93;;;6.18;;
60935;SDS011;46804;51.786;19.520;2023-06-26T22:44:50;7.57;;;4.85;;
60935;SDS011;46804;51.786;19.520;2023-06-26T22:48:50;9.18;;;4.40;;
60935;SDS011;46804;51.786;19.520;2023-06-26T22:52:51;8.82;;;4.35;;
60935;SDS011;46804;51.786;19.520;2023-06-26T22:56:53;6.97;;;3.38;;
60935;SDS011;46804;51.786;19.520;2023-06-26T23:00:54;4.75;;;3.17;;
60935;SDS011;46804;51.786;19.520;2023-06-26T23:04:55;10.13;;;2.80;;
60935;SDS011;46804;51.786;19.520;2023-06-26T23:08:56;4.07;;;2.60;;
60935;SDS011;46804;51.786;19.520;2023-06-26T23:12:58;4.80;;;2.42;;
60935;SDS011;46804;51.786;19.520;2023-06-26T23:16:58;3.80;;;2.17;;
60935;SDS011;46804;51.786;19.520;2023-06-26T23:21:04;5.20;;;2.20;;
60935;SDS011;46804;51.786;19.520;2023-06-26T23:25:05;4.30;;;2.10;;
60935;SDS011;46804;51.786;19.520;2023-06-26T23:29:06;3.28;;;1.90;;
60935;SDS011;46804;51.786;19.520;2023-06-26T23:33:06;2.65;;;1.60;;
60935;SDS011;46804;51.786;19.520;2023-06-26T23:37:08;3.13;;;2.00;;
60935;SDS011;46804;51.786;19.520;2023-06-26T23:41:10;7.10;;;2.08;;
60935;SDS011;46804;51.786;19.520;2023-06-26T23:45:11;3.50;;;1.85;;
60935;SDS011;46804;51.786;19.520;2023-06-26T23:49:12;2.70;;;1.85;;
60935;SDS011;46804;51.786;19.520;2023-06-26T23:53:12;3.40;;;1.98;;
60935;SDS011;46804;51.786;19.520;2023-06-26T23:57:13;2.45;;;1.75;;
